Harrisburg, SD

5:18 AM CDT on July 05, 2015 (GMT -0500)
Lewis Park | | Change Station
CLOSE
Current Station
Personal Weather Station
Location: Sioux Falls, SD
Elevation: 1500 ft
Nearby Weather Stations

Elev 1500 ft 43.50 °N, 96.70 °W | Updated 10 minutes ago

Clear
Clear
66.9 °F
Feels Like 66.9 °F
N
0.0
Wind Variable Wind from South

Today
High -- | Low -- °F
--% Chance of Precip.
Yesterday
High -- | Low -- °F
Precip. -- in
5:51 AM 9:10 PM
Waning Gibbous, 86% visible
Pressure 29.83 in
Visibility 10.0 miles
Clouds Scattered Clouds 10000 ft
Mostly Cloudy 14000 ft
Overcast 22000 ft
Dew Point 63 °F
Humidity 88%
Rainfall 0.00 in
Snow Depth Not available.
UV 0 out of 12
Pollen 5.10 out of 12
Air Quality Not available.
Flu Activity Not available.
METAR KFSD 050956Z 17012KT 10SM SCT100 BKN140 OVC220 21/17 A2986 RMK AO2 SLP101 CONS LTGIC DSNT W T02110167

More Conditions Fewer Conditions

Pressure 29.83 in
Visibility 10.0 miles
Clouds Scattered Clouds 10000 ft
Mostly Cloudy 14000 ft
Overcast 22000 ft
Dew Point 63 °F
Humidity 88%
Rainfall 0.00 in
Snow Depth Not available.
UV 0 out of 12
Pollen 5.10 out of 12
Air Quality Not available.
Flu Activity Not available.
METAR KFSD 050956Z 17012KT 10SM SCT100 BKN140 OVC220 21/17 A2986 RMK AO2 SLP101 CONS LTGIC DSNT W T02110167

More Conditions Fewer Conditions

10-Day Weather Forecast

×

Almanac

Astronomy

Jul. 05, 2015 Rise Set
Actual Time
Civil Twilight
Nautical Twilight
Astronomical Twilight
Moon
Length of Visible Light
Length of Day
Tomorrow will be .
, % of the Moon is Illuminated

Today's Extremes

State Highs State Lows

Community

WunderPhotos

Upload Photos

1,835,218 photos uploaded!

WunderBlogs® & News

Nearby

Air Quality

  Air Quality AQ Index Pollutant
Not available.

Snow Depth

Station Depth Elevation

Earthquake Activity

City Distance Mag. Time & Date
Minimum magnitude displayed is 2.5.

Coastal Water Temperatures

Place Temperature

Stations

Nearby Weather Stations

Station Location Temp. Windchill Dew Point Humidity Wind Precip. Elev Updated Type